createdAt,value
2019-02-27T00:00:43.817Z,154.63
2019-02-27T00:03:13.595Z,167.03
2019-02-27T00:05:45.588Z,153.40
2019-02-27T00:08:17.569Z,156.30
2019-02-27T00:10:49.530Z,148.53
2019-02-27T00:13:24.670Z,150.47
2019-02-27T00:15:55.160Z,153.97
2019-02-27T00:18:27.697Z,148.03
2019-02-27T00:20:59.666Z,156.57
2019-02-27T00:23:31.692Z,161.57
2019-02-27T00:26:04.202Z,148.27
2019-02-27T00:28:36.177Z,153.87
2019-02-27T00:31:11.249Z,152.70
2019-02-27T00:33:42.111Z,149.07
2019-02-27T00:36:14.068Z,158.37
2019-02-27T00:38:46.071Z,145.83
2019-02-27T00:41:18.027Z,151.70
2019-02-27T00:43:50.010Z,165.97
2019-02-27T00:46:21.975Z,147.50
2019-02-27T00:48:53.950Z,157.30
2019-02-27T00:51:25.925Z,154.20
2019-02-27T00:53:58.447Z,152.90
2019-02-27T00:56:30.965Z,153.53
2019-02-27T00:59:03.220Z,149.77
2019-02-27T01:01:35.204Z,152.33
2019-02-27T01:04:07.591Z,156.03
2019-02-27T01:06:39.563Z,157.77
2019-02-27T01:09:11.656Z,146.40
2019-02-27T01:11:43.652Z,149.50
2019-02-27T01:14:15.631Z,142.37
2019-02-27T01:16:49.941Z,141.40
2019-02-27T01:19:21.267Z,153.73
2019-02-27T01:21:53.264Z,143.03
2019-02-27T01:24:25.229Z,143.87
2019-02-27T01:26:57.486Z,147.03
2019-02-27T01:29:29.463Z,144.37
2019-02-27T01:32:01.830Z,140.27
2019-02-27T01:34:33.795Z,143.50
2019-02-27T01:37:05.789Z,147.03
2019-02-27T01:39:38.726Z,139.47
2019-02-27T01:42:10.702Z,153.67
2019-02-27T01:44:46.650Z,140.27
2019-02-27T01:47:19.994Z,139.03
2019-02-27T01:49:51.958Z,139.37
2019-02-27T01:52:24.257Z,145.50
2019-02-27T01:54:56.296Z,138.87
2019-02-27T01:57:28.621Z,140.90
2019-02-27T02:00:00.964Z,133.53
2019-02-27T02:02:34.926Z,142.30
2019-02-27T02:05:07.030Z,137.63
2019-02-27T02:07:40.282Z,142.83
2019-02-27T02:10:12.802Z,132.03
2019-02-27T02:12:48.144Z,148.47
2019-02-27T02:15:50.318Z,131.13
2019-02-27T02:18:36.249Z,140.73
2019-02-27T02:21:18.681Z,133.33
2019-02-27T02:24:16.072Z,138.00
2019-02-27T02:26:55.468Z,137.50
2019-02-27T02:29:57.321Z,134.13
2019-02-27T02:32:54.787Z,127.03
2019-02-27T02:35:46.839Z,127.13
2019-02-27T02:38:44.191Z,118.93
2019-02-27T02:41:23.555Z,119.73
2019-02-27T02:44:14.426Z,125.37
2019-02-27T02:47:21.290Z,123.83
2019-02-27T02:50:39.656Z,117.87
2019-02-27T02:53:27.897Z,119.10
2019-02-27T02:56:24.825Z,122.23
2019-02-27T02:59:24.542Z,112.13
2019-02-27T03:02:03.700Z,109.70
2019-02-27T03:05:04.316Z,116.40
2019-02-27T03:08:19.788Z,109.20
2019-02-27T03:11:19.050Z,106.87
2019-02-27T03:14:28.871Z,107.87
2019-02-27T03:17:38.424Z,110.47
2019-02-27T03:20:37.564Z,102.87
2019-02-27T03:23:19.665Z,102.47
2019-02-27T03:26:20.289Z,93.53
2019-02-27T03:29:15.504Z,96.50
2019-02-27T03:32:01.135Z,91.73
2019-02-27T03:35:05.953Z,97.30
2019-02-27T03:37:56.871Z,102.70
2019-02-27T03:41:07.542Z,97.00
2019-02-27T03:44:20.694Z,94.13
2019-02-27T03:47:15.633Z,89.67
2019-02-27T03:49:55.786Z,94.47
2019-02-27T03:52:48.857Z,96.23
2019-02-27T03:55:56.609Z,97.80
2019-02-27T03:58:35.988Z,95.53
2019-02-27T04:01:31.801Z,95.30
2019-02-27T04:04:58.098Z,89.40
2019-02-27T04:07:46.477Z,87.70
2019-02-27T04:10:18.434Z,89.47
2019-02-27T04:12:51.651Z,89.10
2019-02-27T04:15:24.053Z,86.87
2019-02-27T04:17:54.370Z,86.90
2019-02-27T04:20:26.337Z,88.23
2019-02-27T04:22:58.290Z,85.60
2019-02-27T04:25:31.545Z,79.70
2019-02-27T04:28:04.212Z,82.30
2019-02-27T04:30:36.206Z,85.87
2019-02-27T04:33:08.208Z,89.37
2019-02-27T04:35:40.244Z,85.17
2019-02-27T04:38:12.230Z,90.97
2019-02-27T04:40:44.769Z,88.47
2019-02-27T04:43:16.941Z,90.13
2019-02-27T04:45:48.930Z,88.30
2019-02-27T04:48:20.874Z,84.40
2019-02-27T04:50:53.235Z,84.40
2019-02-27T04:53:25.182Z,87.40
2019-02-27T04:55:57.164Z,87.67
2019-02-27T04:58:31.222Z,86.03
2019-02-27T05:01:02.857Z,83.93
2019-02-27T05:03:34.929Z,80.27
2019-02-27T05:06:07.197Z,85.10
2019-02-27T05:08:39.162Z,86.03
2019-02-27T05:11:13.949Z,88.23
2019-02-27T05:13:44.771Z,86.60
2019-02-27T05:16:16.729Z,91.70
2019-02-27T05:18:48.864Z,88.20
2019-02-27T05:21:20.911Z,84.50
2019-02-27T05:23:53.257Z,87.40
2019-02-27T05:26:27.254Z,87.20
2019-02-27T05:28:59.361Z,86.77
2019-02-27T05:31:31.318Z,84.73
2019-02-27T05:34:03.298Z,88.17
2019-02-27T05:36:35.266Z,83.27
2019-02-27T05:39:08.154Z,86.47
2019-02-27T05:41:40.135Z,92.43
2019-02-27T05:44:12.097Z,84.43
2019-02-27T05:46:44.406Z,84.60
2019-02-27T05:49:16.682Z,89.77
2019-02-27T05:51:48.648Z,88.87
2019-02-27T05:54:20.603Z,93.70
2019-02-27T05:56:52.569Z,82.97
2019-02-27T05:59:28.939Z,91.30
2019-02-27T06:01:58.219Z,94.17
2019-02-27T06:04:30.173Z,84.47
2019-02-27T06:07:02.148Z,83.63
2019-02-27T06:09:34.111Z,92.67
2019-02-27T06:12:06.881Z,85.00
2019-02-27T06:14:39.604Z,85.73
2019-02-27T06:17:12.844Z,84.40
2019-02-27T06:19:45.242Z,84.40
2019-02-27T06:22:17.204Z,82.20
2019-02-27T06:24:49.170Z,88.07
2019-02-27T06:27:21.139Z,89.10
2019-02-27T06:29:56.635Z,84.37
2019-02-27T06:32:27.434Z,92.40
2019-02-27T06:34:59.970Z,83.20
2019-02-27T06:37:32.084Z,86.10
2019-02-27T06:40:07.466Z,88.07
2019-02-27T06:42:40.442Z,85.33
2019-02-27T06:45:17.807Z,84.93
2019-02-27T06:47:49.783Z,85.33
2019-02-27T06:50:25.202Z,87.40
2019-02-27T06:52:55.407Z,79.87
2019-02-27T06:55:28.072Z,89.17
2019-02-27T06:58:01.106Z,93.70
2019-02-27T07:00:36.724Z,83.10
2019-02-27T07:03:06.886Z,79.60
2019-02-27T07:05:38.838Z,81.67
2019-02-27T07:08:10.808Z,81.10
2019-02-27T07:10:42.940Z,84.00
2019-02-27T07:13:15.264Z,81.70
2019-02-27T07:15:48.294Z,77.50
2019-02-27T07:18:21.607Z,79.70
2019-02-27T07:20:55.748Z,75.57
2019-02-27T07:23:27.921Z,80.87
2019-02-27T07:25:59.919Z,80.27
2019-02-27T07:28:32.003Z,72.00
2019-02-27T07:31:04.058Z,85.83
2019-02-27T07:33:37.971Z,76.13
2019-02-27T07:36:09.891Z,80.63
2019-02-27T07:38:41.845Z,69.10
2019-02-27T07:41:17.831Z,83.10
2019-02-27T07:43:48.500Z,72.40
2019-02-27T07:46:22.462Z,79.13
2019-02-27T07:48:56.426Z,75.00
2019-02-27T07:51:27.859Z,77.90
2019-02-27T07:53:59.889Z,71.97
2019-02-27T07:56:31.916Z,78.43
2019-02-27T07:59:03.883Z,82.90
2019-02-27T08:01:43.542Z,81.63
2019-02-27T08:04:10.707Z,71.47
2019-02-27T08:06:42.660Z,69.37
2019-02-27T08:09:14.796Z,67.50
2019-02-27T08:11:47.864Z,63.97
2019-02-27T08:14:19.937Z,61.43
2019-02-27T08:16:51.893Z,64.80
2019-02-27T08:19:24.211Z,67.43
2019-02-27T08:21:56.245Z,70.03
2019-02-27T08:24:28.562Z,60.60
2019-02-27T08:27:01.011Z,68.37
2019-02-27T08:29:32.994Z,76.43
2019-02-27T08:32:05.562Z,70.87
2019-02-27T08:34:38.056Z,70.20
2019-02-27T08:37:10.012Z,77.30
2019-02-27T08:39:41.993Z,71.63
2019-02-27T08:42:15.720Z,75.87
2019-02-27T08:44:48.151Z,68.37
2019-02-27T08:47:20.475Z,81.50
2019-02-27T08:49:57.746Z,74.87
2019-02-27T08:52:26.114Z,66.60
2019-02-27T08:54:58.089Z,60.53
2019-02-27T08:57:30.333Z,38.40
2019-02-27T09:00:02.329Z,42.37
2019-02-27T09:02:34.312Z,38.07
2019-02-27T09:05:09.590Z,43.80
2019-02-27T09:07:43.080Z,37.03
2019-02-27T09:10:23.168Z,40.63
2019-02-27T09:13:04.779Z,41.03
2019-02-27T09:15:28.751Z,40.10
2019-02-27T09:18:03.583Z,38.40
2019-02-27T09:20:35.568Z,41.53
2019-02-27T09:23:07.662Z,35.10
2019-02-27T09:25:39.697Z,38.20
2019-02-27T09:28:11.646Z,34.33
2019-02-27T09:30:43.606Z,36.47
2019-02-27T09:33:17.006Z,29.07
2019-02-27T09:35:49.298Z,26.70
2019-02-27T09:38:24.134Z,22.40
2019-02-27T09:40:55.182Z,26.83
2019-02-27T09:43:27.946Z,23.83
2019-02-27T09:45:59.993Z,26.50
2019-02-27T09:48:33.453Z,24.50
2019-02-27T09:51:07.884Z,24.27
2019-02-27T09:53:39.859Z,20.03
2019-02-27T09:56:11.892Z,21.47
2019-02-27T09:58:45.645Z,22.30
2019-02-27T10:01:18.716Z,21.40
2019-02-27T10:03:52.046Z,18.33
2019-02-27T10:06:24.636Z,20.93
2019-02-27T10:08:59.030Z,19.70
2019-02-27T10:11:30.663Z,22.67
2019-02-27T10:14:02.708Z,21.60
2019-02-27T10:16:35.383Z,18.50
2019-02-27T10:19:07.508Z,18.40
2019-02-27T10:21:41.253Z,16.30
2019-02-27T10:24:13.366Z,19.30
2019-02-27T10:26:45.424Z,19.80
2019-02-27T10:29:18.991Z,16.70
2019-02-27T10:31:51.172Z,18.37
2019-02-27T10:34:23.209Z,14.93
2019-02-27T10:36:55.411Z,23.67
2019-02-27T10:39:27.548Z,17.33
2019-02-27T10:41:59.605Z,17.30
2019-02-27T10:44:33.806Z,15.23
2019-02-27T10:47:05.987Z,14.40
2019-02-27T10:49:38.338Z,18.93
2019-02-27T10:52:10.527Z,14.60
2019-02-27T10:54:42.702Z,14.10
2019-02-27T10:57:14.809Z,16.83
2019-02-27T10:59:46.885Z,18.83
2019-02-27T11:02:19.011Z,15.47
2019-02-27T11:04:51.111Z,13.27
2019-02-27T11:07:23.085Z,14.67
2019-02-27T11:09:56.826Z,13.53
2019-02-27T11:12:29.428Z,15.10
2019-02-27T11:15:02.217Z,14.93
2019-02-27T11:17:34.367Z,17.17
2019-02-27T11:20:09.028Z,16.00
2019-02-27T11:22:41.145Z,18.43
2019-02-27T11:25:23.387Z,18.53
2019-02-27T11:27:55.353Z,17.33
2019-02-27T11:30:39.073Z,15.57
2019-02-27T11:33:11.301Z,25.93
2019-02-27T11:35:43.267Z,25.07
2019-02-27T11:38:15.251Z,15.70
2019-02-27T11:40:49.187Z,14.77
2019-02-27T11:43:20.924Z,17.83
2019-02-27T11:45:57.531Z,13.47
2019-02-27T11:48:28.159Z,15.70
2019-02-27T11:51:00.147Z,20.43
2019-02-27T11:53:35.699Z,16.13
2019-02-27T11:56:05.894Z,18.40
2019-02-27T11:58:39.064Z,17.57
2019-02-27T12:01:12.174Z,14.23
2019-02-27T12:03:45.921Z,13.33
2019-02-27T12:06:18.220Z,15.10
2019-02-27T12:08:50.182Z,14.70
2019-02-27T12:11:22.514Z,15.37
2019-02-27T12:13:54.875Z,16.10
2019-02-27T12:16:27.157Z,17.13
2019-02-27T12:18:59.428Z,15.23
2019-02-27T12:21:32.215Z,16.13
2019-02-27T12:24:05.413Z,17.90
2019-02-27T12:26:38.253Z,15.07
2019-02-27T12:29:10.923Z,17.40
2019-02-27T12:31:47.948Z,14.87
2019-02-27T12:34:16.638Z,17.93
2019-02-27T12:36:52.274Z,15.33
2019-02-27T12:39:22.443Z,16.67
2019-02-27T12:41:54.806Z,15.27
2019-02-27T12:44:26.875Z,17.63
2019-02-27T12:46:58.851Z,14.17
2019-02-27T12:49:30.815Z,16.53
2019-02-27T12:52:02.801Z,14.53
2019-02-27T12:54:34.941Z,12.40
2019-02-27T12:57:06.987Z,15.80
2019-02-27T12:59:38.945Z,10.93
2019-02-27T13:02:10.994Z,14.97
2019-02-27T13:04:42.987Z,17.70
2019-02-27T13:07:14.949Z,13.93
2019-02-27T13:09:46.916Z,19.43
2019-02-27T13:12:19.203Z,18.90
2019-02-27T13:14:51.161Z,19.83
2019-02-27T13:17:23.621Z,16.77
2019-02-27T13:19:55.602Z,17.37
2019-02-27T13:22:29.181Z,14.87
2019-02-27T13:25:01.659Z,15.87
2019-02-27T13:27:33.612Z,20.03
2019-02-27T13:30:16.327Z,18.03
2019-02-27T13:32:48.323Z,16.30
2019-02-27T13:35:22.997Z,19.30
2019-02-27T13:37:54.823Z,17.67
2019-02-27T13:40:29.304Z,18.27
2019-02-27T13:43:01.507Z,17.30
2019-02-27T13:45:34.078Z,18.07
2019-02-27T13:48:06.190Z,15.27
2019-02-27T13:50:38.274Z,16.93
2019-02-27T13:53:10.246Z,19.30
2019-02-27T13:55:42.222Z,17.03
2019-02-27T13:58:14.188Z,18.90
2019-02-27T14:00:46.168Z,18.57
2019-02-27T14:03:18.412Z,17.73
2019-02-27T14:05:50.405Z,16.60
2019-02-27T14:08:22.402Z,18.50
2019-02-27T14:10:54.383Z,17.43
2019-02-27T14:13:26.356Z,16.23
2019-02-27T14:16:00.953Z,18.20
2019-02-27T14:18:32.652Z,17.43
2019-02-27T14:21:04.695Z,18.67
2019-02-27T14:23:38.207Z,20.27
2019-02-27T14:26:10.507Z,24.43
2019-02-27T14:28:42.549Z,22.40
2019-02-27T14:31:14.530Z,24.37
2019-02-27T14:33:47.113Z,20.00
2019-02-27T14:36:20.110Z,19.80
2019-02-27T14:38:53.355Z,20.20
2019-02-27T14:41:26.044Z,18.83
2019-02-27T14:43:58.625Z,17.67
2019-02-27T14:46:30.611Z,18.47
2019-02-27T14:49:02.576Z,20.43
2019-02-27T14:51:34.558Z,20.63
2019-02-27T14:54:06.542Z,22.40
2019-02-27T14:56:41.720Z,23.30
2019-02-27T14:59:12.191Z,20.40
2019-02-27T15:01:48.397Z,18.83
2019-02-27T15:04:17.944Z,19.07
2019-02-27T15:06:51.254Z,21.53
2019-02-27T15:09:23.461Z,25.83
2019-02-27T15:11:55.459Z,20.13
2019-02-27T15:14:27.662Z,21.73
2019-02-27T15:16:59.724Z,22.37
2019-02-27T15:19:31.695Z,23.93
2019-02-27T15:22:03.696Z,23.17
2019-02-27T15:24:35.869Z,24.03
2019-02-27T15:27:08.019Z,22.93
2019-02-27T15:29:40.321Z,46.50
2019-02-27T15:32:12.382Z,20.60
2019-02-27T15:34:45.927Z,22.37
2019-02-27T15:37:18.440Z,23.37
2019-02-27T15:39:51.969Z,26.13
2019-02-27T15:42:24.159Z,24.87
2019-02-27T15:44:56.429Z,30.40
2019-02-27T15:47:30.735Z,24.67
2019-02-27T15:50:02.746Z,28.07
2019-02-27T15:52:34.728Z,24.77
2019-02-27T15:55:10.179Z,27.27
2019-02-27T15:57:42.163Z,28.27
2019-02-27T16:00:25.490Z,30.03
2019-02-27T16:02:57.762Z,26.53
2019-02-27T16:05:31.264Z,23.77
2019-02-27T16:08:03.812Z,30.07
2019-02-27T16:10:35.794Z,26.40
2019-02-27T16:13:07.932Z,24.50
2019-02-27T16:15:40.197Z,26.67
2019-02-27T16:18:13.776Z,28.73
2019-02-27T16:20:47.051Z,25.37
2019-02-27T16:23:19.480Z,28.50
2019-02-27T16:25:53.746Z,25.97
2019-02-27T16:28:25.473Z,27.30
2019-02-27T16:30:57.538Z,24.37
2019-02-27T16:33:29.942Z,24.93
2019-02-27T16:36:01.920Z,27.97
2019-02-27T16:38:33.891Z,27.63
2019-02-27T16:41:06.126Z,26.80
2019-02-27T16:43:38.115Z,26.57
2019-02-27T16:46:10.594Z,29.60
2019-02-27T16:48:43.057Z,31.80
2019-02-27T16:51:15.504Z,27.40
2019-02-27T16:53:52.360Z,26.93
2019-02-27T16:56:21.829Z,28.10
2019-02-27T16:58:53.826Z,26.47
2019-02-27T17:01:26.276Z,27.07
2019-02-27T17:04:00.570Z,26.97
2019-02-27T17:06:32.706Z,31.27
2019-02-27T17:09:07.186Z,27.40
2019-02-27T17:11:39.794Z,32.07
2019-02-27T17:14:11.782Z,25.47
2019-02-27T17:16:44.937Z,29.55
2019-02-27T17:19:17.635Z,26.10
2019-02-27T17:21:49.974Z,31.07
2019-02-27T17:24:22.102Z,29.63
2019-02-27T17:26:54.089Z,26.37
2019-02-27T17:29:26.760Z,30.80
2019-02-27T17:31:58.940Z,30.30
2019-02-27T17:34:30.901Z,28.30
2019-02-27T17:37:03.543Z,30.70
2019-02-27T17:39:36.881Z,32.70
2019-02-27T17:42:09.145Z,30.50
2019-02-27T17:44:41.108Z,29.67
2019-02-27T17:47:13.083Z,31.77
2019-02-27T17:49:45.063Z,26.83
2019-02-27T17:52:17.185Z,33.23
2019-02-27T17:54:49.148Z,29.57
2019-02-27T17:57:25.041Z,28.67
2019-02-27T17:59:54.970Z,31.23
2019-02-27T18:02:26.941Z,31.40
2019-02-27T18:04:59.285Z,28.67
2019-02-27T18:07:34.417Z,31.70
2019-02-27T18:10:08.928Z,32.97
2019-02-27T18:12:41.029Z,31.20
2019-02-27T18:15:21.840Z,38.67
2019-02-27T18:17:53.966Z,28.93
2019-02-27T18:20:25.929Z,29.30
2019-02-27T18:22:57.891Z,37.13
2019-02-27T18:25:29.892Z,35.57
2019-02-27T18:28:01.851Z,35.20
2019-02-27T18:30:34.284Z,39.93
2019-02-27T18:33:06.248Z,38.07
2019-02-27T18:35:38.219Z,35.77
2019-02-27T18:38:10.178Z,36.63
2019-02-27T18:40:42.886Z,35.83
2019-02-27T18:43:15.824Z,34.07
2019-02-27T18:45:48.236Z,34.70
2019-02-27T18:48:21.501Z,35.00
2019-02-27T18:50:55.937Z,37.47
2019-02-27T18:53:27.363Z,34.23
2019-02-27T18:56:01.986Z,33.83
2019-02-27T18:58:33.092Z,33.73
2019-02-27T19:01:09.483Z,36.30
2019-02-27T19:03:40.417Z,30.27
2019-02-27T19:06:13.120Z,30.87
2019-02-27T19:08:45.366Z,32.23
2019-02-27T19:11:17.326Z,31.87
2019-02-27T19:13:49.431Z,28.77
2019-02-27T19:16:21.810Z,28.27
2019-02-27T19:18:53.784Z,31.30
2019-02-27T19:21:25.779Z,29.10
2019-02-27T19:23:57.734Z,27.70
2019-02-27T19:26:29.847Z,35.93
2019-02-27T19:29:01.803Z,27.93
2019-02-27T19:31:34.140Z,36.03
2019-02-27T19:34:07.451Z,33.83
2019-02-27T19:36:40.391Z,33.33
2019-02-27T19:39:12.511Z,30.53
2019-02-27T19:41:44.615Z,36.53
2019-02-27T19:44:16.655Z,32.97
2019-02-27T19:46:48.968Z,31.87
2019-02-27T19:49:21.642Z,31.47
2019-02-27T19:51:54.897Z,35.10
2019-02-27T19:54:27.274Z,32.33
2019-02-27T19:56:59.226Z,32.13
2019-02-27T19:59:31.213Z,35.60
2019-02-27T20:02:03.506Z,29.93
2019-02-27T20:04:35.570Z,32.67
2019-02-27T20:07:07.860Z,31.80
2019-02-27T20:09:39.819Z,31.43
2019-02-27T20:12:12.808Z,32.43
2019-02-27T20:14:46.083Z,35.57
2019-02-27T20:17:18.482Z,34.33
2019-02-27T20:19:51.663Z,30.77
2019-02-27T20:22:23.730Z,31.93
2019-02-27T20:24:55.770Z,33.67
2019-02-27T20:27:27.730Z,30.10
2019-02-27T20:29:59.704Z,30.83
2019-02-27T20:32:32.107Z,31.17
2019-02-27T20:35:04.850Z,34.03
2019-02-27T20:37:37.159Z,31.17
2019-02-27T20:40:14.392Z,28.17
2019-02-27T20:42:49.766Z,28.43
2019-02-27T20:45:26.627Z,29.57
2019-02-27T20:48:01.696Z,30.27
2019-02-27T20:50:39.613Z,32.97
2019-02-27T20:53:14.241Z,30.33
2019-02-27T20:55:46.478Z,33.13
2019-02-27T20:58:19.423Z,31.53
2019-02-27T21:00:51.379Z,29.10
2019-02-27T21:03:26.673Z,30.43
2019-02-27T21:05:57.418Z,27.50
2019-02-27T21:08:36.134Z,27.67
2019-02-27T21:11:07.771Z,29.37
2019-02-27T21:13:39.761Z,31.90
2019-02-27T21:16:11.715Z,28.73
2019-02-27T21:18:43.759Z,31.27
2019-02-27T21:21:16.964Z,33.10
2019-02-27T21:23:49.387Z,30.50
2019-02-27T21:26:22.971Z,29.80
2019-02-27T21:28:58.535Z,28.17
2019-02-27T21:31:29.151Z,32.10
2019-02-27T21:34:01.109Z,31.90
2019-02-27T21:36:36.296Z,32.93
2019-02-27T21:39:07.700Z,31.70
2019-02-27T21:41:42.322Z,28.73
2019-02-27T21:44:13.416Z,29.43
2019-02-27T21:46:47.235Z,31.00
2019-02-27T21:49:19.048Z,28.13
2019-02-27T21:51:51.027Z,32.10
2019-02-27T21:54:23.010Z,28.80
2019-02-27T21:56:55.198Z,31.10
2019-02-27T21:59:27.809Z,29.60
2019-02-27T22:01:59.802Z,32.27
2019-02-27T22:04:31.775Z,29.43
2019-02-27T22:07:03.808Z,27.60
2019-02-27T22:09:35.797Z,31.40
2019-02-27T22:12:08.035Z,33.30
2019-02-27T22:14:40.024Z,32.67
2019-02-27T22:17:11.986Z,29.33
2019-02-27T22:19:43.953Z,33.83
2019-02-27T22:22:15.939Z,32.80
2019-02-27T22:24:47.909Z,30.43
2019-02-27T22:27:19.884Z,31.57
2019-02-27T22:29:51.939Z,34.20
2019-02-27T22:32:23.896Z,31.27
2019-02-27T22:34:55.898Z,33.17
2019-02-27T22:37:27.862Z,37.97
2019-02-27T22:39:59.878Z,35.67
2019-02-27T22:42:32.226Z,31.97
2019-02-27T22:45:05.733Z,32.07
2019-02-27T22:47:37.732Z,35.27
2019-02-27T22:50:13.601Z,34.93
2019-02-27T22:52:45.668Z,34.10
2019-02-27T22:55:17.649Z,35.43
2019-02-27T22:57:49.685Z,33.77
2019-02-27T23:00:51.522Z,32.07
2019-02-27T23:03:35.834Z,32.63
2019-02-27T23:06:11.854Z,34.40
2019-02-27T23:08:43.264Z,33.17
2019-02-27T23:11:15.646Z,35.77
2019-02-27T23:13:49.378Z,41.50
2019-02-27T23:16:21.489Z,34.97
2019-02-27T23:18:54.294Z,39.83
2019-02-27T23:21:27.314Z,32.57
2019-02-27T23:23:59.664Z,36.63
2019-02-27T23:26:31.637Z,36.97
2019-02-27T23:29:05.605Z,34.00
2019-02-27T23:31:37.272Z,39.27
2019-02-27T23:34:09.307Z,39.83
2019-02-27T23:36:41.278Z,36.37
2019-02-27T23:39:13.316Z,43.87
2019-02-27T23:41:45.553Z,36.13
2019-02-27T23:44:17.585Z,37.57
2019-02-27T23:46:51.732Z,33.43
2019-02-27T23:49:23.204Z,41.97
2019-02-27T23:51:55.180Z,37.97
2019-02-27T23:54:27.140Z,41.13
2019-02-27T23:56:59.118Z,41.17
2019-02-27T23:59:32.957Z,44.70
